Patterson Heights, Pennsylvania
Current Conditions -  °F | °C
As of 11:47 AM on Thursday 23 Oct 2014 (Local Time) from KBVI Reporting Station
Clear Clear  
Wind Chill: 13°   Ceiling: Unl
Heat Index: 13°   Visibility: 10mi
Dew Point:   Wind: 7mph
Humidity: 63%   Direction: 320°NW
Pressure: 30.13"   Gusts: 16mph
Location:  40.7641°N, 80.3864°W
Report Text: KBVI 231547Z 32006G14KT 10SM CLR 13/06 A3013
Loading
Personal Weather Stations






























Interactive Weather Map
Tropical Storm Tracking
New forecast layout! Learn more

10-Day Weather Forecast

Advertisements
Track Severe Weather on mobile